Time;durP1;ratioP1;P1;durP2;ratioP2;P2;SDS_P1;SDS_P2;PMS_P1;PMS_P2;Temp;Humidity;BMP_temperature;BMP_pressure;BME280_temperature;BME280_humidity;BME280_pressure;Samples;Min_cycle;Max_cycle;Signal;HPM_P1;HPM_P2
2021/09/10 00:01:15;;;;;;;23.30;16.30;;;;;;;;;;5119616;28;20104;-81
2021/09/10 00:03:43;;;;;;;22.88;17.02;;;;;;;;;;5111383;28;20048;-80
2021/09/10 00:06:10;;;;;;;20.67;15.18;;;;;;;;;;5105604;28;20404;-80
2021/09/10 00:08:46;;;;;;;24.50;17.45;;;;;;;;;;5108898;28;20047;-80
2021/09/10 00:11:14;;;;;;;23.60;17.25;;;;;;;;;;5120921;28;20070;-80
2021/09/10 00:13:41;;;;;;;21.10;16.80;;;;;;;;;;5123165;28;20052;-80
2021/09/10 00:16:10;;;;;;;27.75;18.90;;;;;;;;;;5104981;28;20052;-81
2021/09/10 00:18:40;;;;;;;22.48;17.08;;;;;;;;;;5104565;28;20360;-81
2021/09/10 00:21:07;;;;;;;24.00;16.60;;;;;;;;;;5120965;28;20540;-81
2021/09/10 00:23:33;;;;;;;23.95;17.88;;;;;;;;;;5109683;28;20374;-80
2021/09/10 00:26:01;;;;;;;23.63;15.70;;;;;;;;;;5112399;28;20066;-80
2021/09/10 00:28:40;;;;;;;22.23;16.23;;;;;;;;;;5107528;28;20367;-81
2021/09/10 00:31:06;;;;;;;19.95;16.00;;;;;;;;;;5105290;28;20055;-81
2021/09/10 00:33:34;;;;;;;21.77;17.27;;;;;;;;;;5103610;28;20047;-80
2021/09/10 00:36:01;;;;;;;20.05;16.08;;;;;;;;;;5105342;28;20111;-81
2021/09/10 00:38:30;;;;;;;23.27;17.38;;;;;;;;;;5106364;28;20047;-81
2021/09/10 00:40:58;;;;;;;31.20;20.73;;;;;;;;;;5110932;28;20067;-80
2021/09/10 00:43:24;;;;;;;26.88;19.60;;;;;;;;;;5103822;28;20511;-81
2021/09/10 00:45:51;;;;;;;29.88;19.15;;;;;;;;;;5103821;28;20081;-81
2021/09/10 00:48:21;;;;;;;30.38;21.92;;;;;;;;;;5105318;28;20082;-80
2021/09/10 00:50:51;;;;;;;25.45;20.15;;;;;;;;;;5104331;28;20502;-80
2021/09/10 00:53:18;;;;;;;24.83;18.65;;;;;;;;;;5122299;28;20438;-80
2021/09/10 00:55:46;;;;;;;29.48;20.83;;;;;;;;;;5122365;28;20161;-81
2021/09/10 00:58:13;;;;;;;27.85;20.05;;;;;;;;;;5121489;28;20359;-81
2021/09/10 01:00:40;;;;;;;29.05;18.83;;;;;;;;;;5120345;28;20087;-81
2021/09/10 01:03:08;;;;;;;30.23;19.70;;;;;;;;;;5102863;28;20330;-81
2021/09/10 01:05:45;;;;;;;33.65;22.85;;;;;;;;;;5135731;28;20221;-81
2021/09/10 01:08:13;;;;;;;37.40;23.10;;;;;;;;;;5134435;28;20242;-81
2021/09/10 01:10:40;;;;;;;27.30;21.20;;;;;;;;;;5130574;28;20063;-82
2021/09/10 01:13:12;;;;;;;36.58;26.77;;;;;;;;;;5121173;28;20324;-81
2021/09/10 01:15:46;;;;;;;29.45;22.58;;;;;;;;;;5122410;28;20057;-83
2021/09/10 01:18:13;;;;;;;35.65;24.35;;;;;;;;;;5104115;28;20083;-81
2021/09/10 01:20:40;;;;;;;38.40;28.35;;;;;;;;;;5103972;28;20439;-81
2021/09/10 01:23:06;;;;;;;36.08;26.73;;;;;;;;;;5104352;28;20047;-81
2021/09/10 01:25:35;;;;;;;40.47;29.83;;;;;;;;;;5121286;28;20086;-82
2021/09/10 01:28:02;;;;;;;40.25;29.02;;;;;;;;;;5103934;28;20112;-82
2021/09/10 01:30:33;;;;;;;45.80;32.15;;;;;;;;;;5121984;28;20051;-82
2021/09/10 01:33:02;;;;;;;43.00;31.10;;;;;;;;;;5104494;28;20051;-82
2021/09/10 01:35:29;;;;;;;45.75;32.85;;;;;;;;;;5109525;28;20091;-80
2021/09/10 01:37:56;;;;;;;52.72;34.70;;;;;;;;;;5136997;27;20052;-80
2021/09/10 01:40:23;;;;;;;52.75;35.53;;;;;;;;;;5116109;28;20047;-80
2021/09/10 01:42:50;;;;;;;48.50;34.67;;;;;;;;;;5129990;28;20063;-80
2021/09/10 01:45:17;;;;;;;41.78;30.05;;;;;;;;;;5122873;28;20074;-82
2021/09/10 01:47:44;;;;;;;49.05;33.92;;;;;;;;;;5120725;28;20130;-81
2021/09/10 01:50:12;;;;;;;57.33;37.92;;;;;;;;;;5121380;28;20412;-82
2021/09/10 01:52:39;;;;;;;61.40;41.85;;;;;;;;;;5119580;28;20054;-82
2021/09/10 01:55:07;;;;;;;60.78;41.40;;;;;;;;;;5121772;28;20047;-81
2021/09/10 01:57:38;;;;;;;62.97;41.33;;;;;;;;;;5102497;28;20104;-81
2021/09/10 02:00:05;;;;;;;59.97;41.25;;;;;;;;;;5120066;28;20443;-81
2021/09/10 02:02:32;;;;;;;63.83;43.40;;;;;;;;;;5101837;28;20048;-80
2021/09/10 02:05:00;;;;;;;59.97;41.70;;;;;;;;;;5100637;28;20048;-80
2021/09/10 02:07:27;;;;;;;64.22;42.65;;;;;;;;;;5120474;28;20056;-81
2021/09/10 02:09:53;;;;;;;64.47;45.20;;;;;;;;;;5123869;28;20051;-82
2021/09/10 02:12:20;;;;;;;69.32;45.38;;;;;;;;;;5111170;28;20044;-81
2021/09/10 02:14:50;;;;;;;64.80;45.33;;;;;;;;;;5125199;28;20065;-81
2021/09/10 02:17:16;;;;;;;64.63;44.35;;;;;;;;;;5101949;28;20410;-81
2021/09/10 02:19:43;;;;;;;62.08;42.97;;;;;;;;;;5100757;28;20059;-80
2021/09/10 02:22:10;;;;;;;70.45;47.70;;;;;;;;;;5101251;28;20175;-80
2021/09/10 02:24:36;;;;;;;73.68;47.17;;;;;;;;;;5120725;28;20055;-81
2021/09/10 02:27:03;;;;;;;64.53;43.95;;;;;;;;;;5101654;28;20063;-81
2021/09/10 02:29:30;;;;;;;67.55;44.67;;;;;;;;;;5101505;28;20396;-81
2021/09/10 02:31:56;;;;;;;65.07;44.30;;;;;;;;;;5118831;28;20051;-81
2021/09/10 02:34:23;;;;;;;69.75;44.40;;;;;;;;;;5112255;28;20048;-80
2021/09/10 02:36:50;;;;;;;62.65;43.83;;;;;;;;;;5115385;28;20044;-81
2021/09/10 02:39:22;;;;;;;62.45;44.55;;;;;;;;;;5131496;28;20429;-82
2021/09/10 02:41:49;;;;;;;59.85;42.28;;;;;;;;;;5107979;28;20168;-81
2021/09/10 02:44:16;;;;;;;58.13;41.63;;;;;;;;;;5118393;28;20456;-81
2021/09/10 02:46:43;;;;;;;64.35;42.25;;;;;;;;;;5117741;28;20051;-81
2021/09/10 02:49:09;;;;;;;60.55;40.42;;;;;;;;;;5099922;28;20274;-81
2021/09/10 02:51:42;;;;;;;57.25;40.65;;;;;;;;;;5115307;27;20031;-80
2021/09/10 02:54:11;;;;;;;69.45;45.47;;;;;;;;;;5115343;27;20043;-80
2021/09/10 02:56:38;;;;;;;63.03;43.53;;;;;;;;;;5103168;28;20069;-81
2021/09/10 02:59:05;;;;;;;71.25;45.63;;;;;;;;;;5105192;28;20051;-81
2021/09/10 03:01:32;;;;;;;61.58;43.53;;;;;;;;;;5114599;27;20031;-81
2021/09/10 03:04:07;;;;;;;66.35;46.20;;;;;;;;;;5112085;28;20043;-84
2021/09/10 03:06:36;;;;;;;81.40;50.00;;;;;;;;;;5119811;28;20043;-84
2021/09/10 03:09:03;;;;;;;77.43;51.95;;;;;;;;;;5117733;28;20052;-82
2021/09/10 03:11:36;;;;;;;78.07;51.40;;;;;;;;;;5088384;28;20281;-84
2021/09/10 03:14:02;;;;;;;75.20;48.30;;;;;;;;;;5112651;28;20048;-84
2021/09/10 03:16:31;;;;;;;86.70;53.33;;;;;;;;;;5097850;28;20150;-87
2021/09/10 03:19:01;;;;;;;81.63;54.13;;;;;;;;;;5097518;28;20073;-86
2021/09/10 03:21:28;;;;;;;83.22;53.70;;;;;;;;;;5080584;28;20044;-87
2021/09/10 03:24:00;;;;;;;77.22;49.63;;;;;;;;;;5098574;28;20064;-85
2021/09/10 03:26:27;;;;;;;87.05;55.88;;;;;;;;;;5098474;28;20051;-86
2021/09/10 03:28:54;;;;;;;90.63;56.17;;;;;;;;;;5115970;27;20074;-85
2021/09/10 03:31:27;;;;;;;88.57;55.15;;;;;;;;;;5082527;28;20325;-84
2021/09/10 03:33:54;;;;;;;84.05;52.40;;;;;;;;;;5113839;28;20044;-83
2021/09/10 03:36:21;;;;;;;92.28;55.72;;;;;;;;;;5097469;28;20059;-83
2021/09/10 03:38:47;;;;;;;86.28;54.50;;;;;;;;;;5086363;28;20048;-85
2021/09/10 03:41:15;;;;;;;87.45;54.88;;;;;;;;;;5122681;28;20063;-85
2021/09/10 03:43:44;;;;;;;79.85;50.05;;;;;;;;;;5100659;28;20052;-85
2021/09/10 03:46:13;;;;;;;87.68;52.20;;;;;;;;;;5117776;28;20096;-85
2021/09/10 03:48:44;;;;;;;93.35;53.97;;;;;;;;;;5090368;28;20112;-83
2021/09/10 03:51:10;;;;;;;91.35;55.60;;;;;;;;;;5120798;28;20055;-84
2021/09/10 03:53:42;;;;;;;95.35;58.00;;;;;;;;;;5101915;28;20117;-84
2021/09/10 03:56:09;;;;;;;97.30;59.55;;;;;;;;;;5101630;28;20426;-84
2021/09/10 04:02:37;;;;;;;;;;;;;;;;;;;;;
2021/09/10 04:09:10;;;;;;;90.93;56.92;;;;;;;;;;5025825;28;20045;-88
2021/09/10 04:21:52;;;;;;;;;;;;;;;;;;;;;
2021/09/10 04:24:29;;;;;;;90.50;55.70;;;;;;;;;;5052598;28;20052;-86
2021/09/10 04:26:56;;;;;;;99.35;61.13;;;;;;;;;;5097533;28;20059;-86
2021/09/10 04:32:44;;;;;;;118.40;65.88;;;;;;;;;;5104085;28;20027;-89
2021/09/10 04:35:12;;;;;;;113.43;65.60;;;;;;;;;;5099563;28;20056;-89
2021/09/10 04:37:40;;;;;;;105.68;62.78;;;;;;;;;;5121607;28;20063;-90
2021/09/10 04:40:08;;;;;;;118.57;67.65;;;;;;;;;;5084559;28;20051;-90
2021/09/10 04:42:40;;;;;;;113.95;63.33;;;;;;;;;;5118237;27;20115;-89
2021/09/10 04:45:11;;;;;;;111.40;64.30;;;;;;;;;;5101314;28;20078;-89
2021/09/10 04:51:36;;;;;;;98.88;61.60;;;;;;;;;;5122609;28;20049;-89
2021/09/10 04:54:15;;;;;;;105.60;60.67;;;;;;;;;;5139507;27;20047;-90
2021/09/10 04:57:16;;;;;;;113.65;68.43;;;;;;;;;;5111100;28;20053;-89
2021/09/10 04:59:44;;;;;;;126.32;68.20;;;;;;;;;;5117222;27;20111;-89
2021/09/10 05:02:13;;;;;;;103.90;60.08;;;;;;;;;;5119335;27;20047;-90
2021/09/10 05:05:20;;;;;;;;;;;;;;;;;;;;;
2021/09/10 05:07:47;;;;;;;113.90;65.60;;;;;;;;;;5139542;27;20055;-93
2021/09/10 05:10:26;;;;;;;120.40;68.45;;;;;;;;;;5131049;28;20065;-93
2021/09/10 05:13:05;;;;;;;102.10;64.05;;;;;;;;;;5113350;28;20056;-92
2021/09/10 05:15:39;;;;;;;107.47;64.47;;;;;;;;;;5109700;28;20116;-91
2021/09/10 05:18:23;;;;;;;114.03;67.10;;;;;;;;;;5118902;28;20031;-94
2021/09/10 05:20:58;;;;;;;106.20;63.10;;;;;;;;;;5118772;28;20099;-93
2021/09/10 05:23:29;;;;;;;114.68;66.15;;;;;;;;;;5110247;28;20070;-92
2021/09/10 05:26:13;;;;;;;111.53;66.65;;;;;;;;;;5109631;28;20039;-92
2021/09/10 05:28:59;;;;;;;106.75;62.28;;;;;;;;;;5108992;28;20415;-91
2021/09/10 05:31:27;;;;;;;97.40;60.08;;;;;;;;;;5104607;28;20096;-92
2021/09/10 05:34:02;;;;;;;101.43;61.28;;;;;;;;;;5128098;28;20031;-89
2021/09/10 05:36:33;;;;;;;98.35;60.63;;;;;;;;;;5115950;27;20039;-90
2021/09/10 05:39:29;;;;;;;101.60;61.38;;;;;;;;;;5098686;28;20054;-90
2021/09/10 05:42:03;;;;;;;103.70;60.05;;;;;;;;;;5088411;28;20052;-86
2021/09/10 05:44:41;;;;;;;99.10;57.75;;;;;;;;;;5114861;28;20058;-89
2021/09/10 05:47:09;;;;;;;100.10;57.80;;;;;;;;;;5109729;28;20042;-86
2021/09/10 05:49:37;;;;;;;98.72;56.72;;;;;;;;;;5085714;28;20064;-86
2021/09/10 05:52:10;;;;;;;101.85;57.13;;;;;;;;;;5079865;28;20070;-87
2021/09/10 05:55:06;;;;;;;110.25;60.88;;;;;;;;;;5093849;28;20044;-86
2021/09/10 06:04:54;;;;;;;115.10;63.92;;;;;;;;;;4992668;28;20178;-89
2021/09/10 06:10:44;;;;;;;;;;;;;;;;;;4997542;28;20081;-86
2021/09/10 06:13:41;;;;;;;62.33;37.80;;;;;;;;;;4994679;28;19991;-87
2021/09/10 06:16:45;;;;;;;44.55;25.23;;;;;;;;;;4984959;28;20244;-91
2021/09/10 06:19:33;;;;;;;27.00;16.13;;;;;;;;;;5005105;28;20060;-91
2021/09/10 06:22:15;;;;;;;17.10;10.70;;;;;;;;;;5004625;28;20042;-93
2021/09/10 06:25:28;;;;;;;18.73;12.20;;;;;;;;;;4993246;28;20064;-92
2021/09/10 06:32:24;;;;;;;;;;;;;;;;;;;;;
2021/09/10 06:35:22;;;;;;;20.15;13.85;;;;;;;;;;4980461;28;20050;-90
2021/09/10 06:37:49;;;;;;;32.35;18.10;;;;;;;;;;4967900;28;20039;-91
2021/09/10 06:40:16;;;;;;;34.83;20.85;;;;;;;;;;4993916;28;20078;-90
2021/09/10 06:43:16;;;;;;;;;;;;;;;;;;;;;
2021/09/10 06:46:02;;;;;;;44.23;25.37;;;;;;;;;;5042557;28;20050;-93
2021/09/10 06:52:30;;;;;;;;;;;;;;;;;;;;;
2021/09/10 08:13:08;;;;;;;30.10;19.00;;;;;;;;;;5081493;28;20059;-87
2021/09/10 08:15:58;;;;;;;28.27;18.77;;;;;;;;;;5084698;28;20051;-88
2021/09/10 08:18:42;;;;;;;27.80;18.60;;;;;;;;;;5102506;28;20067;-86
2021/09/10 08:21:23;;;;;;;26.67;16.25;;;;;;;;;;5096254;28;20205;-88
2021/09/10 08:23:51;;;;;;;26.35;17.10;;;;;;;;;;5076389;28;20051;-85
2021/09/10 08:26:18;;;;;;;30.90;18.23;;;;;;;;;;5070483;28;20078;-86
2021/09/10 08:28:45;;;;;;;31.45;21.15;;;;;;;;;;5067911;28;20076;-87
2021/09/10 08:31:13;;;;;;;32.95;20.60;;;;;;;;;;5061481;28;20057;-87
2021/09/10 08:33:43;;;;;;;32.70;20.08;;;;;;;;;;5086903;28;20129;-86
2021/09/10 08:36:11;;;;;;;31.15;20.17;;;;;;;;;;5073611;28;20297;-86
2021/09/10 08:38:51;;;;;;;35.53;22.30;;;;;;;;;;5090341;28;20051;-86
2021/09/10 08:41:21;;;;;;;36.45;22.63;;;;;;;;;;5069381;28;20053;-86
2021/09/10 08:44:07;;;;;;;37.00;22.88;;;;;;;;;;5065344;28;20060;-86
2021/09/10 08:46:36;;;;;;;38.60;24.50;;;;;;;;;;5084663;28;20090;-87
2021/09/10 08:49:04;;;;;;;35.80;21.65;;;;;;;;;;5072474;28;20072;-87
2021/09/10 08:51:31;;;;;;;36.88;23.58;;;;;;;;;;5064834;28;20056;-86
2021/09/10 08:53:58;;;;;;;39.05;24.52;;;;;;;;;;5076886;28;20080;-88
2021/09/10 08:56:25;;;;;;;39.58;24.48;;;;;;;;;;5061060;28;20077;-87
2021/09/10 08:59:05;;;;;;;29.08;21.02;;;;;;;;;;5065594;28;20125;-87
2021/09/10 09:01:32;;;;;;;36.33;22.05;;;;;;;;;;5063634;28;20060;-87
2021/09/10 09:04:06;;;;;;;30.67;21.02;;;;;;;;;;5057358;28;20203;-86
2021/09/10 09:06:33;;;;;;;29.67;21.13;;;;;;;;;;5058057;28;20045;-86
2021/09/10 09:09:01;;;;;;;29.35;20.52;;;;;;;;;;5055527;28;20049;-86
2021/09/10 09:11:28;;;;;;;30.45;21.05;;;;;;;;;;5057012;28;20056;-85
2021/09/10 09:13:56;;;;;;;34.35;21.52;;;;;;;;;;5091554;28;20465;-85
2021/09/10 09:16:25;;;;;;;33.50;22.65;;;;;;;;;;5117405;28;20126;-85
2021/09/10 09:19:14;;;;;;;34.17;23.83;;;;;;;;;;5103771;28;20070;-86
2021/09/10 09:21:41;;;;;;;32.10;21.80;;;;;;;;;;5120738;28;20342;-87
2021/09/10 09:24:17;;;;;;;35.78;23.67;;;;;;;;;;5120545;28;20058;-87
2021/09/10 09:26:45;;;;;;;33.78;23.85;;;;;;;;;;5124169;28;20063;-85
2021/09/10 09:29:16;;;;;;;30.90;22.08;;;;;;;;;;5107642;28;20044;-88
2021/09/10 09:31:52;;;;;;;30.42;21.88;;;;;;;;;;5110456;28;20069;-86
2021/09/10 09:34:50;;;;;;;26.58;20.15;;;;;;;;;;5113963;28;20051;-86
2021/09/10 09:37:19;;;;;;;28.27;18.98;;;;;;;;;;5135483;28;20178;-88
2021/09/10 09:39:54;;;;;;;23.98;17.67;;;;;;;;;;5117195;28;20119;-87
2021/09/10 09:42:28;;;;;;;26.63;18.08;;;;;;;;;;5113771;28;20059;-87
2021/09/10 09:45:12;;;;;;;24.08;16.95;;;;;;;;;;5130786;28;20048;-87
2021/09/10 09:47:45;;;;;;;21.30;14.40;;;;;;;;;;5113766;28;20154;-87
2021/09/10 09:50:13;;;;;;;18.52;13.65;;;;;;;;;;5112084;28;20083;-87
2021/09/10 09:56:40;;;;;;;19.13;11.65;;;;;;;;;;5133035;28;20235;-86
2021/09/10 09:59:12;;;;;;;11.70;9.38;;;;;;;;;;5107877;28;20067;-87
2021/09/10 10:01:46;;;;;;;13.82;9.80;;;;;;;;;;5129874;28;20048;-87
2021/09/10 10:04:20;;;;;;;13.20;8.60;;;;;;;;;;5117055;28;20088;-87
2021/09/10 10:07:21;;;;;;;9.25;7.82;;;;;;;;;;5052087;28;20057;-86
2021/09/10 10:10:05;;;;;;;8.98;7.38;;;;;;;;;;5066637;28;20138;-87
2021/09/10 10:13:20;;;;;;;;;;;;;;;;;;;;;
2021/09/10 10:16:24;;;;;;;10.50;7.22;;;;;;;;;;5036353;28;20147;-87
2021/09/10 10:44:16;;;;;;;;;;;;;;;;;;;;;
2021/09/10 13:10:42;;;;;;;;;;;;;;;;;;;;;
2021/09/10 13:24:47;;;;;;;;;;;;;;;;;;;;;
2021/09/10 13:31:13;;;;;;;;;;;;;;;;;;;;;
2021/09/10 13:34:24;;;;;;;;;;;;;;;;;;;;;
2021/09/10 13:47:09;;;;;;;18.38;14.07;;;;;;;;;;4971596;28;20571;-85
2021/09/10 13:50:02;;;;;;;21.00;16.25;;;;;;;;;;4962467;28;20057;-85
2021/09/10 13:56:57;;;;;;;18.60;15.13;;;;;;;;;;4894384;29;20056;-84
2021/09/10 14:06:36;;;;;;;19.67;11.02;;;;;;;;;;4919080;29;20073;-86
2021/09/10 14:09:04;;;;;;;10.55;8.90;;;;;;;;;;4953095;28;20161;-87
2021/09/10 14:11:31;;;;;;;16.65;14.13;;;;;;;;;;4975327;28;20071;-87
2021/09/10 14:13:57;;;;;;;13.70;10.85;;;;;;;;;;4961301;28;20150;-86
2021/09/10 14:16:24;;;;;;;19.77;14.93;;;;;;;;;;5027931;28;20050;-85
2021/09/10 14:18:51;;;;;;;16.75;13.00;;;;;;;;;;5045063;28;20207;-86
2021/09/10 14:21:22;;;;;;;15.55;11.05;;;;;;;;;;5043141;28;20041;-87
2021/09/10 14:23:52;;;;;;;10.75;9.57;;;;;;;;;;5029256;28;20049;-86
2021/09/10 14:26:28;;;;;;;19.33;12.65;;;;;;;;;;5037548;28;20045;-87
2021/09/10 14:28:55;;;;;;;15.88;10.98;;;;;;;;;;5030961;28;20045;-85
2021/09/10 14:31:22;;;;;;;13.35;10.77;;;;;;;;;;5048139;28;20044;-86
2021/09/10 14:33:49;;;;;;;11.95;10.10;;;;;;;;;;5068782;28;20110;-86
2021/09/10 14:36:19;;;;;;;17.75;11.15;;;;;;;;;;5069239;28;20051;-86
2021/09/10 14:38:46;;;;;;;12.68;9.30;;;;;;;;;;5074861;28;20050;-86
2021/09/10 14:41:12;;;;;;;13.35;10.35;;;;;;;;;;5073306;28;20432;-86
2021/09/10 14:43:39;;;;;;;15.50;10.48;;;;;;;;;;5091241;28;20048;-86
2021/09/10 14:46:06;;;;;;;13.77;11.95;;;;;;;;;;5091083;28;20052;-86
2021/09/10 14:48:33;;;;;;;13.57;10.27;;;;;;;;;;5071252;28;20082;-85
2021/09/10 14:50:59;;;;;;;14.98;11.45;;;;;;;;;;5090589;28;20059;-86
2021/09/10 14:53:30;;;;;;;15.18;11.05;;;;;;;;;;5079031;28;20058;-85
2021/09/10 14:56:00;;;;;;;12.05;10.10;;;;;;;;;;5052944;28;20259;-85
2021/09/10 14:58:29;;;;;;;11.70;9.57;;;;;;;;;;5072331;28;20058;-85
2021/09/10 15:01:00;;;;;;;12.25;8.30;;;;;;;;;;5053358;28;20056;-86
2021/09/10 15:03:27;;;;;;;14.45;10.35;;;;;;;;;;5083393;28;20104;-86
2021/09/10 15:05:54;;;;;;;16.58;9.98;;;;;;;;;;5069293;28;20040;-86
2021/09/10 15:08:27;;;;;;;12.43;8.95;;;;;;;;;;5055930;28;20139;-86
2021/09/10 15:10:54;;;;;;;15.77;9.73;;;;;;;;;;5089169;28;20120;-86
2021/09/10 15:13:21;;;;;;;12.40;10.68;;;;;;;;;;5089622;28;20439;-86
2021/09/10 15:15:48;;;;;;;21.25;13.23;;;;;;;;;;5068622;28;20083;-87
2021/09/10 15:18:15;;;;;;;15.00;10.75;;;;;;;;;;5049705;28;20427;-84
2021/09/10 15:20:42;;;;;;;12.57;9.38;;;;;;;;;;5049724;28;20052;-87
2021/09/10 15:23:12;;;;;;;13.43;10.50;;;;;;;;;;5047294;28;20164;-86
2021/09/10 15:25:42;;;;;;;12.10;8.88;;;;;;;;;;5059421;28;20154;-86
2021/09/10 15:28:09;;;;;;;11.82;9.57;;;;;;;;;;5079934;28;20209;-86
2021/09/10 15:30:37;;;;;;;12.13;9.50;;;;;;;;;;5088787;28;20050;-84
2021/09/10 15:33:10;;;;;;;12.98;9.90;;;;;;;;;;5069267;28;20048;-86
2021/09/10 15:35:38;;;;;;;11.68;8.63;;;;;;;;;;5070815;28;20057;-86
2021/09/10 15:38:06;;;;;;;13.73;9.48;;;;;;;;;;5068676;28;20648;-85
2021/09/10 15:40:34;;;;;;;11.30;10.02;;;;;;;;;;5069982;28;20110;-86
2021/09/10 15:43:01;;;;;;;13.18;10.85;;;;;;;;;;5068776;28;20503;-85
2021/09/10 15:45:28;;;;;;;15.68;11.45;;;;;;;;;;5079700;28;20306;-85
2021/09/10 15:47:55;;;;;;;12.90;11.32;;;;;;;;;;5083428;28;20127;-86
2021/09/10 15:50:21;;;;;;;15.85;11.38;;;;;;;;;;5060038;28;20283;-85
2021/09/10 15:52:48;;;;;;;11.23;9.85;;;;;;;;;;5053153;28;20288;-85
2021/09/10 15:55:20;;;;;;;14.73;10.32;;;;;;;;;;5104909;28;20036;-85
2021/09/10 15:57:47;;;;;;;9.88;8.82;;;;;;;;;;5107838;28;20047;-85
2021/09/10 16:00:18;;;;;;;10.02;8.32;;;;;;;;;;5081831;28;20164;-85
2021/09/10 16:02:48;;;;;;;12.05;9.45;;;;;;;;;;5075803;28;20052;-85
2021/09/10 16:05:23;;;;;;;11.18;9.50;;;;;;;;;;5075492;28;20228;-86
2021/09/10 16:07:51;;;;;;;11.90;8.80;;;;;;;;;;5074940;28;20052;-85
2021/09/10 16:10:23;;;;;;;9.82;7.75;;;;;;;;;;5085450;28;20052;-86
2021/09/10 16:12:50;;;;;;;10.68;8.23;;;;;;;;;;5093564;28;20375;-85
2021/09/10 16:15:17;;;;;;;9.43;8.23;;;;;;;;;;5073026;28;20066;-85
2021/09/10 16:17:44;;;;;;;12.10;9.10;;;;;;;;;;5069957;28;20194;-86
2021/09/10 16:20:15;;;;;;;11.27;9.20;;;;;;;;;;5055101;28;20056;-85
2021/09/10 16:22:47;;;;;;;11.73;10.20;;;;;;;;;;5056011;28;20095;-86
2021/09/10 16:25:15;;;;;;;13.38;10.20;;;;;;;;;;5074166;28;20099;-86
2021/09/10 16:28:00;;;;;;;15.63;12.55;;;;;;;;;;5074896;28;20114;-85
2021/09/10 16:30:26;;;;;;;15.27;13.60;;;;;;;;;;5055328;28;20143;-84
2021/09/10 16:32:53;;;;;;;14.02;10.25;;;;;;;;;;5090165;28;20048;-84
2021/09/10 16:35:23;;;;;;;12.45;10.07;;;;;;;;;;5089657;28;20172;-84
2021/09/10 16:37:51;;;;;;;9.55;7.97;;;;;;;;;;5075001;28;20116;-85
2021/09/10 16:40:18;;;;;;;14.40;7.85;;;;;;;;;;5086741;28;20143;-84
2021/09/10 16:42:46;;;;;;;13.20;7.50;;;;;;;;;;5070767;28;20049;-83
2021/09/10 16:45:15;;;;;;;13.32;7.95;;;;;;;;;;5071463;28;20048;-82
2021/09/10 16:47:41;;;;;;;12.48;8.52;;;;;;;;;;5052524;28;20048;-82
2021/09/10 16:50:17;;;;;;;20.20;10.32;;;;;;;;;;5068638;28;20075;-81
2021/09/10 16:52:44;;;;;;;;;;;;;;;;;;5060058;28;20071;-82
2021/09/10 16:55:11;;;;;;;14.68;9.40;;;;;;;;;;5089651;28;20023;-82
2021/09/10 16:57:38;;;;;;;15.73;11.00;;;;;;;;;;5102640;28;20052;-82
2021/09/10 17:00:08;;;;;;;32.95;13.90;;;;;;;;;;5088667;28;20071;-92
2021/09/10 17:02:40;;;;;;;35.72;12.55;;;;;;;;;;5095712;28;20277;-90
2021/09/10 17:05:12;;;;;;;35.90;10.15;;;;;;;;;;5124654;27;20233;-92
2021/09/10 17:08:00;;;;;;;39.47;10.85;;;;;;;;;;5116032;28;20043;-92
2021/09/10 17:10:44;;;;;;;12.02;8.80;;;;;;;;;;5114692;27;20066;-90
2021/09/10 17:13:43;;;;;;;11.10;8.98;;;;;;;;;;5128273;28;20103;-90
2021/09/10 17:16:25;;;;;;;15.00;9.23;;;;;;;;;;5143414;27;20059;-89
2021/09/10 17:18:58;;;;;;;13.18;10.18;;;;;;;;;;5110040;28;20044;-88
2021/09/10 17:21:28;;;;;;;11.98;9.50;;;;;;;;;;5115911;27;20137;-86
2021/09/10 17:23:55;;;;;;;15.02;10.68;;;;;;;;;;5117476;27;20071;-87
2021/09/10 17:26:24;;;;;;;12.63;10.50;;;;;;;;;;5120464;27;20031;-87
2021/09/10 17:29:09;;;;;;;13.65;9.90;;;;;;;;;;5109600;28;20204;-86
2021/09/10 17:31:50;;;;;;;8.97;7.67;;;;;;;;;;5078826;28;20047;-86
2021/09/10 17:34:18;;;;;;;13.40;8.60;;;;;;;;;;5122641;27;20633;-89
2021/09/10 17:36:54;;;;;;;13.82;9.43;;;;;;;;;;5108900;27;20051;-90
2021/09/10 17:39:27;;;;;;;13.05;8.88;;;;;;;;;;5115095;28;20047;-92
2021/09/10 17:41:58;;;;;;;12.57;10.85;;;;;;;;;;5116437;28;20221;-90
2021/09/10 17:44:40;;;;;;;11.73;10.52;;;;;;;;;;5096567;28;20054;-91
2021/09/10 17:47:21;;;;;;;13.40;10.60;;;;;;;;;;5123925;27;20081;-91
2021/09/10 17:49:51;;;;;;;13.10;11.75;;;;;;;;;;5118376;27;20139;-90
2021/09/10 17:52:21;;;;;;;12.70;11.48;;;;;;;;;;5094275;28;20059;-90
2021/09/10 17:54:54;;;;;;;16.35;12.20;;;;;;;;;;5099966;28;20160;-90
2021/09/10 17:57:27;;;;;;;14.25;12.35;;;;;;;;;;5100975;28;20048;-90
2021/09/10 17:59:54;;;;;;;13.75;12.45;;;;;;;;;;5120476;27;20218;-90
2021/09/10 18:02:21;;;;;;;19.35;13.20;;;;;;;;;;5094608;28;20108;-90
2021/09/10 18:04:48;;;;;;;16.90;11.73;;;;;;;;;;5114901;28;20051;-90
2021/09/10 18:07:28;;;;;;;14.70;12.05;;;;;;;;;;5121307;27;20083;-90
2021/09/10 18:09:55;;;;;;;17.88;13.98;;;;;;;;;;5119997;27;20150;-90
2021/09/10 18:12:24;;;;;;;16.40;12.93;;;;;;;;;;5095340;28;20104;-91
2021/09/10 18:14:51;;;;;;;15.55;13.35;;;;;;;;;;5134602;27;20090;-90
2021/09/10 18:17:18;;;;;;;15.85;14.15;;;;;;;;;;5128717;28;20072;-90
2021/09/10 18:19:48;;;;;;;15.63;13.32;;;;;;;;;;5128141;27;20132;-90
2021/09/10 18:22:24;;;;;;;16.02;14.35;;;;;;;;;;5138006;27;20036;-90
2021/09/10 18:24:52;;;;;;;16.70;14.93;;;;;;;;;;5136957;27;20138;-89
2021/09/10 18:27:21;;;;;;;20.60;16.20;;;;;;;;;;5111550;28;20085;-89
2021/09/10 18:29:48;;;;;;;18.63;16.70;;;;;;;;;;5126709;28;20273;-88
2021/09/10 18:32:31;;;;;;;19.00;16.25;;;;;;;;;;5116995;28;20040;-90
2021/09/10 18:34:58;;;;;;;18.88;16.90;;;;;;;;;;5111601;28;20098;-89
2021/09/10 18:37:25;;;;;;;25.08;18.42;;;;;;;;;;5094963;28;20059;-89
2021/09/10 18:39:52;;;;;;;22.33;18.48;;;;;;;;;;5115180;28;20191;-89
2021/09/10 18:42:18;;;;;;;21.88;19.50;;;;;;;;;;5097261;28;20119;-90
2021/09/10 18:44:46;;;;;;;18.73;15.18;;;;;;;;;;5114528;28;20071;-90
2021/09/10 18:47:15;;;;;;;12.02;10.20;;;;;;;;;;5111511;28;20052;-90
2021/09/10 18:49:43;;;;;;;4.85;4.18;;;;;;;;;;5117058;28;20111;-90
2021/09/10 18:52:18;;;;;;;3.13;2.78;;;;;;;;;;5109389;28;20051;-90
2021/09/10 18:54:47;;;;;;;5.22;2.92;;;;;;;;;;5140536;27;20051;-90
2021/09/10 18:57:18;;;;;;;4.32;2.30;;;;;;;;;;5125040;28;20212;-88
2021/09/10 18:59:45;;;;;;;3.78;2.33;;;;;;;;;;5119830;28;20051;-91
2021/09/10 19:02:13;;;;;;;4.95;2.42;;;;;;;;;;5095898;28;20068;-89
2021/09/10 19:04:44;;;;;;;3.67;2.38;;;;;;;;;;5095300;28;20068;-89
2021/09/10 19:07:11;;;;;;;3.47;2.60;;;;;;;;;;5106404;28;20050;-89
2021/09/10 19:09:38;;;;;;;2.88;2.10;;;;;;;;;;5115255;28;20056;-89
2021/09/10 19:12:08;;;;;;;2.88;2.10;;;;;;;;;;5085204;28;20048;-89
2021/09/10 19:14:34;;;;;;;5.78;2.38;;;;;;;;;;5088977;28;20076;-89
2021/09/10 19:17:01;;;;;;;3.08;2.15;;;;;;;;;;5091476;28;20071;-89
2021/09/10 19:19:32;;;;;;;4.22;2.15;;;;;;;;;;5070736;28;20048;-91
2021/09/10 19:21:58;;;;;;;4.95;2.53;;;;;;;;;;5094606;28;20292;-89
2021/09/10 19:24:25;;;;;;;2.88;2.60;;;;;;;;;;5079726;28;20075;-89
2021/09/10 19:26:52;;;;;;;5.88;2.70;;;;;;;;;;5078852;28;20066;-90
2021/09/10 19:29:31;;;;;;;2.85;2.38;;;;;;;;;;5096328;28;20388;-89
2021/09/10 19:32:03;;;;;;;5.78;2.60;;;;;;;;;;5098764;28;20447;-88
2021/09/10 19:34:30;;;;;;;7.70;3.03;;;;;;;;;;5104591;28;20229;-89
2021/09/10 19:36:58;;;;;;;3.58;2.72;;;;;;;;;;5091674;28;20075;-87
2021/09/10 19:39:25;;;;;;;4.95;2.80;;;;;;;;;;5103680;28;20058;-89
2021/09/10 19:41:52;;;;;;;3.50;3.20;;;;;;;;;;5101404;28;20382;-89
2021/09/10 19:44:21;;;;;;;4.68;3.40;;;;;;;;;;5094484;28;20056;-89
2021/09/10 19:46:48;;;;;;;4.60;3.25;;;;;;;;;;5076556;28;20048;-89
2021/09/10 19:49:14;;;;;;;3.85;3.25;;;;;;;;;;5079725;28;20048;-89
2021/09/10 19:51:43;;;;;;;4.28;3.55;;;;;;;;;;5074645;28;20044;-89
2021/09/10 19:54:12;;;;;;;7.25;3.20;;;;;;;;;;5093647;28;20048;-89
2021/09/10 19:56:41;;;;;;;4.05;3.65;;;;;;;;;;5087617;28;20052;-89
2021/09/10 19:59:12;;;;;;;5.25;3.60;;;;;;;;;;5104486;28;20052;-87
2021/09/10 20:01:40;;;;;;;3.80;3.40;;;;;;;;;;5115398;28;20111;-88
2021/09/10 20:04:10;;;;;;;5.38;4.00;;;;;;;;;;5120215;28;20051;-88
2021/09/10 20:06:37;;;;;;;4.40;4.00;;;;;;;;;;5121370;28;20052;-89
2021/09/10 20:09:11;;;;;;;4.97;4.13;;;;;;;;;;5122990;28;20054;-89
2021/09/10 20:11:38;;;;;;;5.70;4.20;;;;;;;;;;5103056;28;20051;-89
2021/09/10 20:14:05;;;;;;;9.80;4.68;;;;;;;;;;5090376;28;20202;-90
2021/09/10 20:16:40;;;;;;;5.18;4.15;;;;;;;;;;5085370;28;20078;-89
2021/09/10 20:19:13;;;;;;;5.60;4.13;;;;;;;;;;5124430;28;20051;-88
2021/09/10 20:21:43;;;;;;;6.43;4.55;;;;;;;;;;5129823;28;20036;-89
2021/09/10 20:24:09;;;;;;;5.22;4.20;;;;;;;;;;5133896;28;20063;-89
2021/09/10 20:26:39;;;;;;;6.40;4.60;;;;;;;;;;5114625;28;20103;-88
2021/09/10 20:29:07;;;;;;;9.25;5.07;;;;;;;;;;5095818;28;20043;-88
2021/09/10 20:31:38;;;;;;;7.40;5.38;;;;;;;;;;5104058;28;20166;-88